createdAt,value
2018-04-13T00:02:14.059Z,94017.53
2018-04-13T00:04:43.130Z,94012.26
2018-04-13T00:07:12.257Z,94019.91
2018-04-13T00:09:41.289Z,94017.18
2018-04-13T00:12:10.345Z,94019.49
2018-04-13T00:14:39.401Z,94017.53
2018-04-13T00:17:08.453Z,94014.08
2018-04-13T00:19:37.506Z,94005.41
2018-04-13T00:22:06.555Z,94002.17
2018-04-13T00:24:35.744Z,94000.40
2018-04-13T00:27:04.836Z,93994.81
2018-04-13T00:29:34.805Z,94002.58
2018-04-13T00:32:04.018Z,94006.79
2018-04-13T00:34:33.053Z,94009.31
2018-04-13T00:37:02.110Z,94008.55
2018-04-13T00:39:31.291Z,94012.38
2018-04-13T00:42:00.337Z,94007.85
2018-04-13T00:44:29.406Z,94014.74
2018-04-13T00:46:58.475Z,94018.02
2018-04-13T00:49:27.601Z,94022.48
2018-04-13T00:51:56.674Z,94019.52
2018-04-13T00:54:25.718Z,94026.15
2018-04-13T00:56:54.866Z,94028.06
2018-04-13T00:59:23.918Z,94029.08
2018-04-13T01:01:52.964Z,94036.69
2018-04-13T01:04:22.009Z,94039.64
2018-04-13T01:06:51.056Z,94045.38
2018-04-13T01:09:20.144Z,94045.05
2018-04-13T01:11:49.197Z,94050.04
2018-04-13T01:14:18.259Z,94039.28
2018-04-13T01:16:47.291Z,94035.05
2018-04-13T01:19:20.901Z,94032.63
2018-04-13T01:21:49.921Z,94028.69
2018-04-13T01:24:18.972Z,94029.50
2018-04-13T01:26:48.006Z,94029.45
2018-04-13T01:29:17.765Z,94023.78
2018-04-13T01:31:46.814Z,94025.18
2018-04-13T01:34:15.877Z,94029.38
2018-04-13T01:36:45.014Z,94030.34
2018-04-13T01:39:14.134Z,94031.40
2018-04-13T01:41:43.157Z,94031.63
2018-04-13T01:44:12.197Z,94031.96
2018-04-13T01:46:41.253Z,94033.13
2018-04-13T01:49:10.446Z,94041.21
2018-04-13T01:51:39.459Z,94046.22
2018-04-13T01:54:08.508Z,94052.02
2018-04-13T01:56:37.800Z,94050.48
2018-04-13T01:59:06.903Z,94059.69
2018-04-13T02:01:35.925Z,94060.17
2018-04-13T02:04:04.982Z,94062.50
2018-04-13T02:06:34.046Z,94065.33
2018-04-13T02:09:03.094Z,94067.45
2018-04-13T02:11:32.144Z,94070.19
2018-04-13T02:14:01.194Z,94072.69
2018-04-13T02:16:30.250Z,94081.97
2018-04-13T02:18:59.594Z,94073.65
2018-04-13T02:24:05.340Z,94072.00
2018-04-13T02:26:34.393Z,94078.63
2018-04-13T02:29:04.461Z,94076.08
2018-04-13T02:31:33.542Z,94076.66
2018-04-13T02:34:03.494Z,94080.62
2018-04-13T02:36:32.646Z,94080.22
2018-04-13T02:39:01.706Z,94085.51
2018-04-13T02:41:30.741Z,94077.25
2018-04-13T02:43:59.789Z,94080.38
2018-04-13T02:46:28.973Z,94078.80
2018-04-13T02:48:58.918Z,94078.09
2018-04-13T02:51:27.961Z,94081.78
2018-04-13T02:53:57.033Z,94083.17
2018-04-13T02:56:26.081Z,94077.50
2018-04-13T02:58:55.139Z,94084.20
2018-04-13T03:01:24.230Z,94090.31
2018-04-13T03:06:29.433Z,94092.42
2018-04-13T03:08:58.467Z,94087.20
2018-04-13T03:11:27.529Z,94097.86
2018-04-13T03:13:56.581Z,94099.63
2018-04-13T03:16:27.609Z,94101.86
2018-04-13T03:18:56.738Z,94105.90
2018-04-13T03:21:25.703Z,94106.09
2018-04-13T03:23:54.769Z,94110.88
2018-04-13T03:26:23.816Z,94110.12
2018-04-13T03:28:52.870Z,94109.50
2018-04-13T03:31:21.941Z,94110.98
2018-04-13T03:33:51.013Z,94112.94
2018-04-13T03:36:20.062Z,94120.50
2018-04-13T03:38:49.132Z,94129.36
2018-04-13T03:41:18.438Z,94130.67
2018-04-13T03:43:47.468Z,94134.30
2018-04-13T03:46:16.601Z,94144.17
2018-04-13T03:48:45.662Z,94143.48
2018-04-13T03:51:14.753Z,94149.28
2018-04-13T03:53:43.809Z,94150.14
2018-04-13T03:56:12.864Z,94149.41
2018-04-13T03:58:41.911Z,94152.44
2018-04-13T04:03:46.659Z,94159.92
2018-04-13T04:06:15.769Z,94162.52
2018-04-13T04:08:44.821Z,94167.11
2018-04-13T04:11:13.876Z,94168.30
2018-04-13T04:13:43.197Z,94170.41
2018-04-13T04:16:12.723Z,94164.53
2018-04-13T04:18:42.738Z,94167.14
2018-04-13T04:24:16.437Z,94175.59
2018-04-13T04:26:50.138Z,94180.02
2018-04-13T04:29:19.310Z,94175.55
2018-04-13T04:31:48.346Z,94170.14
2018-04-13T04:36:53.165Z,94178.76
2018-04-13T04:39:22.203Z,94186.80
2018-04-13T04:41:51.474Z,94190.60
2018-04-13T04:44:20.592Z,94192.97
2018-04-13T04:46:49.622Z,94203.44
2018-04-13T04:51:55.980Z,94216.86
2018-04-13T04:54:25.136Z,94226.16
2018-04-13T04:56:54.214Z,94231.48
2018-04-13T04:59:23.269Z,94237.84
2018-04-13T05:01:52.444Z,94237.31
2018-04-13T05:04:21.487Z,94241.66
2018-04-13T05:06:50.551Z,94239.66
2018-04-13T05:09:21.716Z,94245.02
2018-04-13T05:11:52.135Z,94241.34
2018-04-13T05:14:21.232Z,94242.01
2018-04-13T05:16:50.246Z,94241.38
2018-04-13T05:19:19.512Z,94240.45
2018-04-13T05:21:48.563Z,94240.54
2018-04-13T05:24:18.226Z,94242.34
2018-04-13T05:26:47.254Z,94240.99
2018-04-13T05:29:16.677Z,94247.05
2018-04-13T05:31:45.775Z,94254.72
2018-04-13T05:34:14.815Z,94263.31
2018-04-13T05:36:43.870Z,94269.30
2018-04-13T05:39:13.332Z,94264.47
2018-04-13T05:41:42.841Z,94260.23
2018-04-13T05:44:17.115Z,94260.39
2018-04-13T05:46:46.347Z,94268.45
2018-04-13T05:49:26.699Z,94276.03
2018-04-13T05:52:00.037Z,94280.88
2018-04-13T05:57:05.826Z,94277.27
2018-04-13T05:59:38.401Z,94275.81
2018-04-13T06:04:46.967Z,94269.82
2018-04-13T06:07:16.062Z,94275.20
2018-04-13T06:09:45.277Z,94286.37
2018-04-13T06:12:14.425Z,94282.91
2018-04-13T06:14:43.513Z,94289.47
2018-04-13T06:17:14.511Z,94287.31
2018-04-13T06:20:00.274Z,94289.98
2018-04-13T06:22:45.172Z,94296.19
2018-04-13T06:27:53.758Z,94296.01
2018-04-13T06:30:25.173Z,94299.81
2018-04-13T06:35:30.309Z,94311.14
2018-04-13T06:37:59.934Z,94314.89
2018-04-13T06:40:29.089Z,94319.38
2018-04-13T06:43:01.157Z,94331.05
2018-04-13T06:45:31.834Z,94331.93
2018-04-13T06:48:14.027Z,94343.30
2018-04-13T06:50:43.809Z,94349.94
2018-04-13T06:53:12.874Z,94343.42
2018-04-13T06:55:50.587Z,94345.27
2018-04-13T06:58:19.715Z,94352.92
2018-04-13T07:00:49.238Z,94361.37
2018-04-13T07:05:56.692Z,94356.05
2018-04-13T07:08:25.794Z,94355.06
2018-04-13T07:13:31.056Z,94351.66
2018-04-13T07:18:39.158Z,94346.48
2018-04-13T07:23:45.335Z,94340.67
2018-04-13T07:26:14.893Z,94340.98
2018-04-13T07:28:43.926Z,94348.17
2018-04-13T07:31:14.025Z,94336.87
2018-04-13T07:33:43.144Z,94334.96
2018-04-13T07:36:13.170Z,94339.16
2018-04-13T07:38:42.421Z,94336.20
2018-04-13T07:41:11.267Z,94336.58
2018-04-13T07:43:40.314Z,94332.61
2018-04-13T07:46:10.735Z,94337.31
2018-04-13T07:48:39.799Z,94340.89
2018-04-13T07:51:09.534Z,94331.64
2018-04-13T07:53:38.511Z,94332.31
2018-04-13T07:56:07.595Z,94339.06
2018-04-13T07:58:37.392Z,94338.34
2018-04-13T08:01:06.432Z,94337.46
2018-04-13T08:03:35.486Z,94338.70
2018-04-13T08:06:06.194Z,94347.22
2018-04-13T08:08:35.219Z,94355.77
2018-04-13T08:11:04.847Z,94353.20
2018-04-13T08:13:33.894Z,94347.98
2018-04-13T08:16:03.618Z,94349.92
2018-04-13T08:18:32.664Z,94352.55
2018-04-13T08:23:37.606Z,94361.88
2018-04-13T08:26:06.639Z,94371.45
2018-04-13T08:28:36.149Z,94379.59
2018-04-13T08:31:05.234Z,94396.05
2018-04-13T08:33:34.678Z,94405.80
2018-04-13T08:36:03.766Z,94406.97
2018-04-13T08:38:32.790Z,94407.86
2018-04-13T08:41:01.859Z,94414.48
2018-04-13T08:46:06.699Z,94410.42
2018-04-13T08:48:36.410Z,94421.25
2018-04-13T08:51:05.371Z,94425.75
2018-04-13T08:53:34.856Z,94430.41
2018-04-13T08:56:03.895Z,94437.57
2018-04-13T08:58:32.986Z,94450.85
2018-04-13T09:01:09.779Z,94450.89
2018-04-13T09:03:38.947Z,94453.04
2018-04-13T09:06:07.994Z,94458.28
2018-04-13T09:08:37.065Z,94450.13
2018-04-13T09:11:06.134Z,94463.40
2018-04-13T09:13:35.443Z,94459.36
2018-04-13T09:16:04.579Z,94473.03
2018-04-13T09:18:33.898Z,94481.61
2018-04-13T09:23:38.743Z,94495.23
2018-04-13T09:26:07.819Z,94490.13
2018-04-13T09:28:36.873Z,94493.16
2018-04-13T09:33:44.855Z,94508.13
2018-04-13T09:36:13.920Z,94512.46
2018-04-13T09:38:43.624Z,94520.23
2018-04-13T09:41:52.162Z,94517.24
2018-04-13T09:44:21.717Z,94525.34
2018-04-13T09:46:50.882Z,94542.19
2018-04-13T09:51:56.482Z,94540.31
2018-04-13T09:54:27.289Z,94539.85
2018-04-13T09:56:56.335Z,94546.43
2018-04-13T09:59:27.087Z,94544.88
2018-04-13T10:01:56.122Z,94536.72
2018-04-13T10:07:20.832Z,94544.91
2018-04-13T10:09:50.426Z,94549.02
2018-04-13T10:12:19.538Z,94550.34
2018-04-13T10:14:49.094Z,94543.52
2018-04-13T10:17:18.158Z,94553.86
2018-04-13T10:19:47.216Z,94562.14
2018-04-13T10:22:16.359Z,94564.92
2018-04-13T10:24:45.404Z,94555.68
2018-04-13T10:27:15.442Z,94552.64
2018-04-13T10:32:20.588Z,94566.83
2018-04-13T10:34:49.661Z,94561.03
2018-04-13T10:37:18.714Z,94561.00
2018-04-13T10:39:49.275Z,94564.75
2018-04-13T10:42:18.341Z,94572.31
2018-04-13T10:44:47.907Z,94569.49
2018-04-13T10:47:16.989Z,94573.44
2018-04-13T10:49:46.054Z,94578.80
2018-04-13T10:52:15.103Z,94584.33
2018-04-13T10:54:45.318Z,94581.23
2018-04-13T10:57:14.402Z,94575.05
2018-04-13T10:59:43.639Z,94577.97
2018-04-13T11:02:12.699Z,94594.33
2018-04-13T11:04:41.754Z,94583.98
2018-04-13T11:07:18.418Z,94589.92
2018-04-13T11:09:47.442Z,94594.15
2018-04-13T11:12:16.502Z,94593.13
2018-04-13T11:14:46.062Z,94592.45
2018-04-13T11:17:15.115Z,94592.58
2018-04-13T11:22:20.951Z,94601.87
2018-04-13T11:24:52.341Z,94615.38
2018-04-13T11:27:21.611Z,94614.94
2018-04-13T11:29:50.683Z,94624.81
2018-04-13T11:32:21.583Z,94609.14
2018-04-13T11:37:27.445Z,94606.61
2018-04-13T11:39:56.594Z,94639.09
2018-04-13T11:42:28.950Z,94639.16
2018-04-13T11:45:00.387Z,94634.40
2018-04-13T11:47:32.732Z,94633.15
2018-04-13T11:50:01.979Z,94641.93
2018-04-13T11:57:44.771Z,94658.06
2018-04-13T12:02:54.010Z,94657.33
2018-04-13T12:05:27.309Z,94652.19
2018-04-13T12:08:01.274Z,94662.41
2018-04-13T12:10:34.842Z,94660.94
2018-04-13T12:13:04.405Z,94652.30
2018-04-13T12:15:33.458Z,94667.35
2018-04-13T12:18:04.626Z,94660.20
2018-04-13T12:20:34.137Z,94677.26
2018-04-13T12:23:03.173Z,94673.54
2018-04-13T12:25:32.881Z,94668.82
2018-04-13T12:28:01.940Z,94685.81
2018-04-13T12:30:32.218Z,94680.39
2018-04-13T12:35:37.747Z,94686.73
2018-04-13T12:38:06.794Z,94692.48
2018-04-13T12:40:35.844Z,94698.72
2018-04-13T12:43:05.219Z,94704.14
2018-04-13T12:45:34.342Z,94691.83
2018-04-13T12:48:04.205Z,94725.67
2018-04-13T12:53:09.149Z,94716.22
2018-04-13T12:55:38.521Z,94715.30
2018-04-13T12:58:07.628Z,94717.38
2018-04-13T13:00:36.849Z,94718.42
2018-04-13T13:03:06.010Z,94723.82
2018-04-13T13:05:36.194Z,94731.47
2018-04-13T13:08:06.417Z,94732.61
2018-04-13T13:10:35.471Z,94728.08
2018-04-13T13:13:04.517Z,94745.04
2018-04-13T13:15:33.574Z,94761.47
2018-04-13T13:18:02.635Z,94749.66
2018-04-13T13:20:31.695Z,94762.99
2018-04-13T13:25:36.478Z,94764.21
2018-04-13T13:28:06.287Z,94771.58
2018-04-13T13:30:35.435Z,94775.86
2018-04-13T13:33:04.565Z,94781.65
2018-04-13T13:35:34.051Z,94792.23
2018-04-13T13:38:03.138Z,94787.03
2018-04-13T13:40:32.687Z,94792.03
2018-04-13T13:45:37.913Z,94797.50
2018-04-13T13:48:07.119Z,94806.62
2018-04-13T13:50:36.685Z,94825.24
2018-04-13T13:53:07.858Z,94844.20
2018-04-13T13:58:17.488Z,94852.78
2018-04-13T14:00:51.746Z,94866.70
2018-04-13T14:03:25.619Z,94871.30
2018-04-13T14:05:57.364Z,94888.83
2018-04-13T14:11:05.296Z,94902.20
2018-04-13T14:13:37.592Z,94909.99
2018-04-13T14:18:46.585Z,94928.15
2018-04-13T14:23:57.448Z,94943.64
2018-04-13T14:26:30.431Z,94955.53
2018-04-13T14:28:59.478Z,94955.81
2018-04-13T14:31:28.745Z,94950.30
2018-04-13T14:33:57.790Z,94969.12
2018-04-13T14:39:02.868Z,94987.52
2018-04-13T14:41:32.091Z,94986.77
2018-04-13T14:44:01.688Z,94992.06
2018-04-13T14:46:31.159Z,94992.47
2018-04-13T14:49:00.240Z,95002.16
2018-04-13T14:51:29.299Z,94997.81
2018-04-13T14:53:58.720Z,95013.77
2018-04-13T14:59:05.125Z,95013.59
2018-04-13T15:01:34.175Z,95006.53
2018-04-13T15:04:03.251Z,95007.53
2018-04-13T15:06:33.098Z,95001.52
2018-04-13T15:09:02.327Z,95010.25
2018-04-13T15:11:31.722Z,95011.86
2018-04-13T15:14:01.230Z,95018.58
2018-04-13T15:16:30.372Z,95032.88
2018-04-13T15:21:35.767Z,95052.14
2018-04-13T15:24:04.790Z,95053.56
2018-04-13T15:26:33.855Z,95054.28
2018-04-13T15:29:02.899Z,95070.66
2018-04-13T15:31:31.933Z,95070.83
2018-04-13T15:34:01.795Z,95078.20
2018-04-13T15:36:30.843Z,95079.59
2018-04-13T15:41:35.938Z,95088.61
2018-04-13T15:44:04.953Z,95098.67
2018-04-13T15:46:34.949Z,95108.33
2018-04-13T15:49:04.169Z,95109.13
2018-04-13T15:51:35.171Z,95116.09
2018-04-13T15:54:05.008Z,95120.42
2018-04-13T15:56:34.050Z,95117.56
2018-04-13T15:59:03.138Z,95124.78
2018-04-13T16:01:42.277Z,95130.56
2018-04-13T16:04:11.778Z,95122.46
2018-04-13T16:06:40.826Z,95121.95
2018-04-13T16:09:09.934Z,95133.57
2018-04-13T16:11:39.150Z,95135.16
2018-04-13T16:14:08.359Z,95145.21
2018-04-13T16:19:13.198Z,95145.65
2018-04-13T16:21:42.507Z,95152.42
2018-04-13T16:24:11.645Z,95149.99
2018-04-13T16:26:40.740Z,95153.16
2018-04-13T16:29:10.278Z,95156.41
2018-04-13T16:31:39.364Z,95163.35
2018-04-13T16:34:08.769Z,95171.52
2018-04-13T16:36:38.486Z,95177.77
2018-04-13T16:39:08.541Z,95180.43
2018-04-13T16:41:37.790Z,95184.09
2018-04-13T16:44:06.845Z,95188.21
2018-04-13T16:46:35.901Z,95189.83
2018-04-13T16:49:05.306Z,95192.80
2018-04-13T16:51:34.350Z,95196.34
2018-04-13T16:56:39.106Z,95204.50
2018-04-13T16:59:08.196Z,95210.56
2018-04-13T17:01:37.682Z,95216.38
2018-04-13T17:04:06.812Z,95218.62
2018-04-13T17:09:11.603Z,95227.44
2018-04-13T17:11:40.952Z,95229.84
2018-04-13T17:16:45.755Z,95235.91
2018-04-13T17:19:14.883Z,95240.75
2018-04-13T17:21:43.913Z,95245.95
2018-04-13T17:24:12.975Z,95252.99
2018-04-13T17:26:42.025Z,95257.58
2018-04-13T17:29:11.155Z,95259.39
2018-04-13T17:31:40.147Z,95262.05
2018-04-13T17:34:09.210Z,95266.14
2018-04-13T17:36:38.278Z,95267.68
2018-04-13T17:39:07.318Z,95272.47
2018-04-13T17:41:38.330Z,95279.71
2018-04-13T17:44:08.370Z,95287.41
2018-04-13T17:46:37.619Z,95287.20
2018-04-13T17:49:06.683Z,95288.56
2018-04-13T17:51:35.850Z,95290.59
2018-04-13T17:54:04.949Z,95288.17
2018-04-13T17:56:34.062Z,95300.95
2018-04-13T17:59:03.957Z,95304.16
2018-04-13T18:01:33.062Z,95308.87
2018-04-13T18:04:02.302Z,95315.38
2018-04-13T18:09:07.279Z,95331.23
2018-04-13T18:11:36.459Z,95346.63
2018-04-13T18:14:05.495Z,95354.12
2018-04-13T18:16:34.573Z,95360.12
2018-04-13T18:19:03.675Z,95361.89
2018-04-13T18:21:32.814Z,95372.89
2018-04-13T18:24:01.888Z,95376.97
2018-04-13T18:26:31.198Z,95381.44
2018-04-13T18:31:36.018Z,95388.98
2018-04-13T18:34:07.021Z,95394.92
2018-04-13T18:36:36.079Z,95393.50
2018-04-13T18:39:05.135Z,95398.64
2018-04-13T18:41:34.275Z,95400.72
2018-04-13T18:44:04.243Z,95407.84
2018-04-13T18:46:33.315Z,95411.33
2018-04-13T18:49:02.410Z,95415.28
2018-04-13T18:51:31.457Z,95422.27
2018-04-13T18:54:00.551Z,95433.00
2018-04-13T18:56:29.598Z,95432.47
2018-04-13T18:58:58.650Z,95435.09
2018-04-13T19:01:27.698Z,95439.88
2018-04-13T19:03:56.976Z,95446.80
2018-04-13T19:06:26.008Z,95448.31
2018-04-13T19:08:55.069Z,95454.44
2018-04-13T19:14:00.922Z,95470.89
2018-04-13T19:16:29.961Z,95474.39
2018-04-13T19:18:59.150Z,95477.40
2018-04-13T19:21:28.220Z,95487.41
2018-04-13T19:23:57.265Z,95489.10
2018-04-13T19:26:26.321Z,95492.69
2018-04-13T19:28:55.371Z,95500.31
2018-04-13T19:31:24.421Z,95508.26
2018-04-13T19:33:54.086Z,95516.00
2018-04-13T19:36:23.307Z,95504.35
2018-04-13T19:38:52.337Z,95499.19
2018-04-13T19:41:22.334Z,95500.22
2018-04-13T19:43:51.394Z,95496.22
2018-04-13T19:46:20.676Z,95492.98
2018-04-13T19:48:49.726Z,95490.36
2018-04-13T19:51:18.930Z,95487.63
2018-04-13T19:53:47.962Z,95500.89
2018-04-13T19:56:17.062Z,95517.69
2018-04-13T19:58:46.301Z,95521.80
2018-04-13T20:01:15.408Z,95521.37
2018-04-13T20:03:44.530Z,95528.27
2018-04-13T20:06:13.654Z,95527.37
2018-04-13T20:08:42.959Z,95531.51
2018-04-13T20:11:12.053Z,95533.11
2018-04-13T20:13:41.101Z,95532.20
2018-04-13T20:16:10.140Z,95535.63
2018-04-13T20:18:40.330Z,95535.75
2018-04-13T20:21:09.581Z,95530.38
2018-04-13T20:23:38.814Z,95527.94
2018-04-13T20:28:48.749Z,95516.00
2018-04-13T20:31:17.838Z,95506.91
2018-04-13T20:33:47.108Z,95501.47
2018-04-13T20:36:16.153Z,95497.16
2018-04-13T20:38:45.326Z,95492.53
2018-04-13T20:41:14.375Z,95496.34
2018-04-13T20:43:43.419Z,95487.11
2018-04-13T20:48:48.483Z,95491.98
2018-04-13T20:51:17.586Z,95489.06
2018-04-13T20:53:46.747Z,95484.62
2018-04-13T20:56:17.321Z,95485.92
2018-04-13T20:58:46.433Z,95499.10
2018-04-13T21:01:15.701Z,95504.39
2018-04-13T21:03:44.737Z,95508.95
2018-04-13T21:06:13.835Z,95521.19
2018-04-13T21:08:42.970Z,95530.38
2018-04-13T21:11:12.592Z,95539.91
2018-04-13T21:13:42.716Z,95541.27
2018-04-13T21:16:11.769Z,95539.29
2018-04-13T21:18:40.846Z,95542.72
2018-04-13T21:21:10.872Z,95541.08
2018-04-13T21:23:39.901Z,95537.95
2018-04-13T21:26:09.279Z,95543.73
2018-04-13T21:28:38.303Z,95547.18
2018-04-13T21:31:07.338Z,95551.84
2018-04-13T21:33:37.310Z,95549.86
2018-04-13T21:36:06.369Z,95547.53
2018-04-13T21:38:35.398Z,95546.41
2018-04-13T21:41:05.451Z,95542.63
2018-04-13T21:43:34.625Z,95542.47
2018-04-13T21:46:03.751Z,95542.22
2018-04-13T21:48:32.798Z,95545.97
2018-04-13T21:51:01.861Z,95544.80
2018-04-13T21:53:30.984Z,95545.61
2018-04-13T21:56:00.040Z,95547.98
2018-04-13T21:58:31.122Z,95551.11
2018-04-13T22:01:00.165Z,95550.54
2018-04-13T22:03:29.293Z,95551.67
2018-04-13T22:05:58.337Z,95555.52
2018-04-13T22:08:27.418Z,95556.64
2018-04-13T22:10:56.514Z,95556.53
2018-04-13T22:13:31.649Z,95561.49
2018-04-13T22:16:00.806Z,95562.80
2018-04-13T22:18:29.981Z,95562.00
2018-04-13T22:21:00.034Z,95562.84
2018-04-13T22:23:29.089Z,95564.41
2018-04-13T22:25:58.251Z,95566.59
2018-04-13T22:28:27.444Z,95567.43
2018-04-13T22:30:56.474Z,95571.39
2018-04-13T22:33:25.516Z,95571.76
2018-04-13T22:35:54.616Z,95575.00
2018-04-13T22:38:23.654Z,95579.16
2018-04-13T22:40:52.689Z,95579.06
2018-04-13T22:43:21.775Z,95582.94
2018-04-13T22:45:50.820Z,95590.71
2018-04-13T22:48:20.175Z,95593.00
2018-04-13T22:50:49.233Z,95598.53
2018-04-13T22:53:18.310Z,95598.38
2018-04-13T22:55:47.452Z,95594.63
2018-04-13T22:58:16.518Z,95598.81
2018-04-13T23:00:45.575Z,95600.81
2018-04-13T23:03:14.648Z,95607.24
2018-04-13T23:05:43.917Z,95602.47
2018-04-13T23:10:48.698Z,95609.44
2018-04-13T23:13:17.755Z,95609.92
2018-04-13T23:15:47.035Z,95608.98
2018-04-13T23:18:17.018Z,95610.97
2018-04-13T23:20:46.057Z,95612.81
2018-04-13T23:23:15.151Z,95607.70
2018-04-13T23:25:44.179Z,95610.02
2018-04-13T23:28:13.237Z,95618.34
2018-04-13T23:30:42.362Z,95619.09
2018-04-13T23:33:11.404Z,95623.30
2018-04-13T23:35:40.445Z,95621.72
2018-04-13T23:38:09.538Z,95624.07
2018-04-13T23:40:38.592Z,95619.40
2018-04-13T23:43:08.545Z,95618.14
2018-04-13T23:50:49.024Z,95624.72
2018-04-13T23:53:18.092Z,95622.41
2018-04-13T23:55:47.138Z,95630.22
2018-04-13T23:58:16.178Z,95628.20
